sensor_id;sensor_type;location;lat;lon;timestamp;temperature;humidity
65854;DHT22;52627;48.838;2.402;2023-07-02T00:00:05;19.28;56.41
65854;DHT22;52627;48.838;2.402;2023-07-02T00:02:33;19.26;56.53
65854;DHT22;52627;48.838;2.402;2023-07-02T00:05:01;19.21;56.69
65854;DHT22;52627;48.838;2.402;2023-07-02T00:07:29;19.17;56.87
65854;DHT22;52627;48.838;2.402;2023-07-02T00:09:56;19.14;56.98
65854;DHT22;52627;48.838;2.402;2023-07-02T00:12:24;19.10;57.09
65854;DHT22;52627;48.838;2.402;2023-07-02T00:14:51;19.07;57.25
65854;DHT22;52627;48.838;2.402;2023-07-02T00:17:20;19.04;57.35
65854;DHT22;52627;48.838;2.402;2023-07-02T00:19:48;19.01;57.51
65854;DHT22;52627;48.838;2.402;2023-07-02T00:22:19;18.98;57.61
65854;DHT22;52627;48.838;2.402;2023-07-02T00:24:47;18.94;57.76
65854;DHT22;52627;48.838;2.402;2023-07-02T00:27:15;18.91;57.83
65854;DHT22;52627;48.838;2.402;2023-07-02T00:29:42;18.88;57.93
65854;DHT22;52627;48.838;2.402;2023-07-02T00:32:09;18.85;58.03
65854;DHT22;52627;48.838;2.402;2023-07-02T00:34:37;18.82;58.12
65854;DHT22;52627;48.838;2.402;2023-07-02T00:37:04;18.79;58.26
65854;DHT22;52627;48.838;2.402;2023-07-02T00:39:31;18.75;58.48
65854;DHT22;52627;48.838;2.402;2023-07-02T00:42:02;18.71;58.60
65854;DHT22;52627;48.838;2.402;2023-07-02T00:44:31;18.69;58.71
65854;DHT22;52627;48.838;2.402;2023-07-02T00:46:58;18.68;58.81
65854;DHT22;52627;48.838;2.402;2023-07-02T00:49:26;18.67;58.92
65854;DHT22;52627;48.838;2.402;2023-07-02T00:51:54;18.64;59.00
65854;DHT22;52627;48.838;2.402;2023-07-02T00:54:22;18.63;59.09
65854;DHT22;52627;48.838;2.402;2023-07-02T00:56:49;18.62;59.21
65854;DHT22;52627;48.838;2.402;2023-07-02T00:59:17;18.59;59.28
65854;DHT22;52627;48.838;2.402;2023-07-02T01:01:45;18.56;59.36
65854;DHT22;52627;48.838;2.402;2023-07-02T01:04:17;18.55;59.52
65854;DHT22;52627;48.838;2.402;2023-07-02T01:06:45;18.49;59.58
65854;DHT22;52627;48.838;2.402;2023-07-02T01:09:12;18.45;59.63
65854;DHT22;52627;48.838;2.402;2023-07-02T01:11:40;18.42;59.77
65854;DHT22;52627;48.838;2.402;2023-07-02T01:14:12;18.40;59.86
65854;DHT22;52627;48.838;2.402;2023-07-02T01:16:43;18.38;59.96
65854;DHT22;52627;48.838;2.402;2023-07-02T01:19:16;18.37;60.07
65854;DHT22;52627;48.838;2.402;2023-07-02T01:21:46;18.33;60.18
65854;DHT22;52627;48.838;2.402;2023-07-02T01:24:15;18.32;60.36
65854;DHT22;52627;48.838;2.402;2023-07-02T01:26:43;18.27;60.52
65854;DHT22;52627;48.838;2.402;2023-07-02T01:29:13;18.23;60.58
65854;DHT22;52627;48.838;2.402;2023-07-02T01:31:46;18.22;60.67
65854;DHT22;52627;48.838;2.402;2023-07-02T01:34:14;18.19;60.78
65854;DHT22;52627;48.838;2.402;2023-07-02T01:36:41;18.14;60.96
65854;DHT22;52627;48.838;2.402;2023-07-02T01:39:09;18.11;61.03
65854;DHT22;52627;48.838;2.402;2023-07-02T01:41:37;18.06;61.18
65854;DHT22;52627;48.838;2.402;2023-07-02T01:44:09;18.02;61.34
65854;DHT22;52627;48.838;2.402;2023-07-02T01:46:38;17.98;61.44
65854;DHT22;52627;48.838;2.402;2023-07-02T01:49:05;17.97;61.50
65854;DHT22;52627;48.838;2.402;2023-07-02T01:51:33;17.96;61.59
65854;DHT22;52627;48.838;2.402;2023-07-02T01:54:01;17.96;61.64
65854;DHT22;52627;48.838;2.402;2023-07-02T01:56:28;17.95;61.71
65854;DHT22;52627;48.838;2.402;2023-07-02T01:58:56;17.96;61.80
65854;DHT22;52627;48.838;2.402;2023-07-02T02:01:23;17.95;61.87
65854;DHT22;52627;48.838;2.402;2023-07-02T02:03:50;17.93;61.93
65854;DHT22;52627;48.838;2.402;2023-07-02T02:06:18;17.91;62.03
65854;DHT22;52627;48.838;2.402;2023-07-02T02:08:46;17.89;62.12
65854;DHT22;52627;48.838;2.402;2023-07-02T02:11:13;17.89;62.19
65854;DHT22;52627;48.838;2.402;2023-07-02T02:13:40;17.87;62.26
65854;DHT22;52627;48.838;2.402;2023-07-02T02:16:08;17.86;62.37
65854;DHT22;52627;48.838;2.402;2023-07-02T02:18:35;17.81;62.49
65854;DHT22;52627;48.838;2.402;2023-07-02T02:21:02;17.79;62.58
65854;DHT22;52627;48.838;2.402;2023-07-02T02:23:30;17.76;62.73
65854;DHT22;52627;48.838;2.402;2023-07-02T02:25:57;17.75;62.81
65854;DHT22;52627;48.838;2.402;2023-07-02T02:28:24;17.73;62.91
65854;DHT22;52627;48.838;2.402;2023-07-02T02:30:51;17.72;62.98
65854;DHT22;52627;48.838;2.402;2023-07-02T02:33:20;17.69;63.19
65854;DHT22;52627;48.838;2.402;2023-07-02T02:35:48;17.64;63.36
65854;DHT22;52627;48.838;2.402;2023-07-02T02:38:16;17.61;63.42
65854;DHT22;52627;48.838;2.402;2023-07-02T02:40:43;17.60;63.49
65854;DHT22;52627;48.838;2.402;2023-07-02T02:43:10;17.60;63.51
65854;DHT22;52627;48.838;2.402;2023-07-02T02:45:38;17.61;63.65
65854;DHT22;52627;48.838;2.402;2023-07-02T02:48:06;17.59;63.86
65854;DHT22;52627;48.838;2.402;2023-07-02T02:50:33;17.54;64.00
65854;DHT22;52627;48.838;2.402;2023-07-02T02:53:00;17.51;64.04
65854;DHT22;52627;48.838;2.402;2023-07-02T02:55:28;17.50;64.11
65854;DHT22;52627;48.838;2.402;2023-07-02T02:57:55;17.51;64.13
65854;DHT22;52627;48.838;2.402;2023-07-02T03:00:22;17.49;64.32
65854;DHT22;52627;48.838;2.402;2023-07-02T03:02:50;17.46;64.39
65854;DHT22;52627;48.838;2.402;2023-07-02T03:05:17;17.43;64.50
65854;DHT22;52627;48.838;2.402;2023-07-02T03:07:44;17.42;64.52
65854;DHT22;52627;48.838;2.402;2023-07-02T03:10:12;17.42;64.60
65854;DHT22;52627;48.838;2.402;2023-07-02T03:12:39;17.40;64.68
65854;DHT22;52627;48.838;2.402;2023-07-02T03:15:07;17.36;64.76
65854;DHT22;52627;48.838;2.402;2023-07-02T03:17:35;17.32;64.85
65854;DHT22;52627;48.838;2.402;2023-07-02T03:20:03;17.28;65.02
65854;DHT22;52627;48.838;2.402;2023-07-02T03:22:35;17.27;65.10
65854;DHT22;52627;48.838;2.402;2023-07-02T03:25:02;17.25;65.11
65854;DHT22;52627;48.838;2.402;2023-07-02T03:27:30;17.24;65.23
65854;DHT22;52627;48.838;2.402;2023-07-02T03:29:57;17.24;65.29
65854;DHT22;52627;48.838;2.402;2023-07-02T03:32:25;17.22;65.36
65854;DHT22;52627;48.838;2.402;2023-07-02T03:34:53;17.19;65.45
65854;DHT22;52627;48.838;2.402;2023-07-02T03:37:20;17.16;65.61
65854;DHT22;52627;48.838;2.402;2023-07-02T03:39:47;17.13;65.69
65854;DHT22;52627;48.838;2.402;2023-07-02T03:42:15;17.12;65.84
65854;DHT22;52627;48.838;2.402;2023-07-02T03:44:43;17.09;65.90
65854;DHT22;52627;48.838;2.402;2023-07-02T03:47:10;17.09;65.93
65854;DHT22;52627;48.838;2.402;2023-07-02T03:49:39;17.09;66.01
65854;DHT22;52627;48.838;2.402;2023-07-02T03:52:07;17.07;66.12
65854;DHT22;52627;48.838;2.402;2023-07-02T03:54:35;17.05;66.27
65854;DHT22;52627;48.838;2.402;2023-07-02T03:57:02;17.02;66.31
65854;DHT22;52627;48.838;2.402;2023-07-02T03:59:30;17.01;66.40
65854;DHT22;52627;48.838;2.402;2023-07-02T04:01:57;17.00;66.41
65854;DHT22;52627;48.838;2.402;2023-07-02T04:04:24;17.00;66.49
65854;DHT22;52627;48.838;2.402;2023-07-02T04:06:52;16.98;66.55
65854;DHT22;52627;48.838;2.402;2023-07-02T04:09:19;16.97;66.60
65854;DHT22;52627;48.838;2.402;2023-07-02T04:11:47;16.97;66.63
65854;DHT22;52627;48.838;2.402;2023-07-02T04:14:14;16.99;66.70
65854;DHT22;52627;48.838;2.402;2023-07-02T04:16:43;16.97;66.88
65854;DHT22;52627;48.838;2.402;2023-07-02T04:19:11;16.97;66.89
65854;DHT22;52627;48.838;2.402;2023-07-02T04:21:39;16.99;66.89
65854;DHT22;52627;48.838;2.402;2023-07-02T04:24:06;17.02;66.93
65854;DHT22;52627;48.838;2.402;2023-07-02T04:26:34;17.04;66.96
65854;DHT22;52627;48.838;2.402;2023-07-02T04:29:21;17.05;66.99
65854;DHT22;52627;48.838;2.402;2023-07-02T04:31:49;17.05;67.00
65854;DHT22;52627;48.838;2.402;2023-07-02T04:34:16;17.05;67.06
65854;DHT22;52627;48.838;2.402;2023-07-02T04:36:43;17.04;67.10
65854;DHT22;52627;48.838;2.402;2023-07-02T04:39:11;17.03;67.20
65854;DHT22;52627;48.838;2.402;2023-07-02T04:41:38;17.03;67.20
65854;DHT22;52627;48.838;2.402;2023-07-02T04:44:05;17.01;67.31
65854;DHT22;52627;48.838;2.402;2023-07-02T04:46:33;17.02;67.45
65854;DHT22;52627;48.838;2.402;2023-07-02T04:49:01;17.01;67.49
65854;DHT22;52627;48.838;2.402;2023-07-02T04:51:29;17.01;67.50
65854;DHT22;52627;48.838;2.402;2023-07-02T04:53:56;17.02;67.52
65854;DHT22;52627;48.838;2.402;2023-07-02T04:56:23;17.04;67.51
65854;DHT22;52627;48.838;2.402;2023-07-02T04:58:51;17.07;67.56
65854;DHT22;52627;48.838;2.402;2023-07-02T05:01:18;17.11;67.60
65854;DHT22;52627;48.838;2.402;2023-07-02T05:03:46;17.14;67.62
65854;DHT22;52627;48.838;2.402;2023-07-02T05:06:13;17.15;67.61
65854;DHT22;52627;48.838;2.402;2023-07-02T05:08:40;17.16;67.61
65854;DHT22;52627;48.838;2.402;2023-07-02T05:11:09;17.17;67.68
65854;DHT22;52627;48.838;2.402;2023-07-02T05:13:37;17.18;67.69
65854;DHT22;52627;48.838;2.402;2023-07-02T05:16:04;17.20;67.69
65854;DHT22;52627;48.838;2.402;2023-07-02T05:18:31;17.21;67.70
65854;DHT22;52627;48.838;2.402;2023-07-02T05:20:59;17.24;67.70
65854;DHT22;52627;48.838;2.402;2023-07-02T05:23:26;17.25;67.70
65854;DHT22;52627;48.838;2.402;2023-07-02T05:25:53;17.30;67.68
65854;DHT22;52627;48.838;2.402;2023-07-02T05:28:21;17.37;67.68
65854;DHT22;52627;48.838;2.402;2023-07-02T05:30:48;17.44;67.66
65854;DHT22;52627;48.838;2.402;2023-07-02T05:33:16;17.48;67.60
65854;DHT22;52627;48.838;2.402;2023-07-02T05:35:43;17.54;67.58
65854;DHT22;52627;48.838;2.402;2023-07-02T05:38:13;17.62;67.50
65854;DHT22;52627;48.838;2.402;2023-07-02T05:40:40;17.76;67.41
65854;DHT22;52627;48.838;2.402;2023-07-02T05:43:08;17.88;67.32
65854;DHT22;52627;48.838;2.402;2023-07-02T05:45:35;18.00;67.21
65854;DHT22;52627;48.838;2.402;2023-07-02T05:48:02;18.07;67.09
65854;DHT22;52627;48.838;2.402;2023-07-02T05:50:30;18.11;67.00
65854;DHT22;52627;48.838;2.402;2023-07-02T05:52:58;18.15;66.88
65854;DHT22;52627;48.838;2.402;2023-07-02T05:55:25;18.20;66.73
65854;DHT22;52627;48.838;2.402;2023-07-02T05:57:52;18.23;66.66
65854;DHT22;52627;48.838;2.402;2023-07-02T06:00:20;18.26;66.57
65854;DHT22;52627;48.838;2.402;2023-07-02T06:02:47;18.28;66.45
65854;DHT22;52627;48.838;2.402;2023-07-02T06:05:15;18.33;66.35
65854;DHT22;52627;48.838;2.402;2023-07-02T06:07:42;18.36;66.22
65854;DHT22;52627;48.838;2.402;2023-07-02T06:10:10;18.39;66.15
65854;DHT22;52627;48.838;2.402;2023-07-02T06:12:37;18.43;66.03
65854;DHT22;52627;48.838;2.402;2023-07-02T06:15:05;18.50;65.96
65854;DHT22;52627;48.838;2.402;2023-07-02T06:17:33;18.57;65.85
65854;DHT22;52627;48.838;2.402;2023-07-02T06:20:03;18.60;65.73
65854;DHT22;52627;48.838;2.402;2023-07-02T06:22:33;18.67;65.63
65854;DHT22;52627;48.838;2.402;2023-07-02T06:25:00;18.77;65.60
65854;DHT22;52627;48.838;2.402;2023-07-02T06:27:31;18.90;65.50
65854;DHT22;52627;48.838;2.402;2023-07-02T06:29:58;19.02;65.36
65854;DHT22;52627;48.838;2.402;2023-07-02T06:32:26;19.13;65.13
65854;DHT22;52627;48.838;2.402;2023-07-02T06:34:53;19.20;64.98
65854;DHT22;52627;48.838;2.402;2023-07-02T06:37:20;19.24;64.80
65854;DHT22;52627;48.838;2.402;2023-07-02T06:39:48;19.34;64.77
65854;DHT22;52627;48.838;2.402;2023-07-02T06:42:15;19.46;64.58
65854;DHT22;52627;48.838;2.402;2023-07-02T06:44:43;19.71;64.26
65854;DHT22;52627;48.838;2.402;2023-07-02T06:47:10;19.89;64.00
65854;DHT22;52627;48.838;2.402;2023-07-02T06:49:37;19.97;63.84
65854;DHT22;52627;48.838;2.402;2023-07-02T06:52:05;20.02;63.58
65854;DHT22;52627;48.838;2.402;2023-07-02T06:54:33;20.02;63.40
65854;DHT22;52627;48.838;2.402;2023-07-02T06:57:00;20.05;63.24
65854;DHT22;52627;48.838;2.402;2023-07-02T06:59:28;20.10;63.06
65854;DHT22;52627;48.838;2.402;2023-07-02T07:01:55;20.25;62.87
65854;DHT22;52627;48.838;2.402;2023-07-02T07:04:23;20.50;62.68
65854;DHT22;52627;48.838;2.402;2023-07-02T07:06:50;20.60;62.45
65854;DHT22;52627;48.838;2.402;2023-07-02T07:09:17;20.71;62.14
65854;DHT22;52627;48.838;2.402;2023-07-02T07:11:45;20.75;61.90
65854;DHT22;52627;48.838;2.402;2023-07-02T07:14:12;20.79;61.72
65854;DHT22;52627;48.838;2.402;2023-07-02T07:16:39;20.88;61.57
65854;DHT22;52627;48.838;2.402;2023-07-02T07:19:07;21.14;61.29
65854;DHT22;52627;48.838;2.402;2023-07-02T07:21:34;21.27;61.17
65854;DHT22;52627;48.838;2.402;2023-07-02T07:24:02;21.46;60.95
65854;DHT22;52627;48.838;2.402;2023-07-02T07:26:29;21.70;60.59
65854;DHT22;52627;48.838;2.402;2023-07-02T07:28:57;21.91;60.18
65854;DHT22;52627;48.838;2.402;2023-07-02T07:31:25;22.09;59.84
65854;DHT22;52627;48.838;2.402;2023-07-02T07:33:52;22.22;59.72
65854;DHT22;52627;48.838;2.402;2023-07-02T07:36:20;22.38;59.35
65854;DHT22;52627;48.838;2.402;2023-07-02T07:38:47;22.55;58.86
65854;DHT22;52627;48.838;2.402;2023-07-02T07:41:15;22.67;58.62
65854;DHT22;52627;48.838;2.402;2023-07-02T07:43:42;22.88;58.19
65854;DHT22;52627;48.838;2.402;2023-07-02T07:46:09;23.10;57.77
65854;DHT22;52627;48.838;2.402;2023-07-02T07:48:37;23.18;57.57
65854;DHT22;52627;48.838;2.402;2023-07-02T07:51:04;23.16;56.97
65854;DHT22;52627;48.838;2.402;2023-07-02T07:53:31;23.16;56.53
65854;DHT22;52627;48.838;2.402;2023-07-02T07:55:59;23.24;56.29
65854;DHT22;52627;48.838;2.402;2023-07-02T07:58:26;23.40;56.16
65854;DHT22;52627;48.838;2.402;2023-07-02T08:00:54;23.76;55.69
65854;DHT22;52627;48.838;2.402;2023-07-02T08:03:22;23.96;55.17
65854;DHT22;52627;48.838;2.402;2023-07-02T08:05:49;24.11;54.83
65854;DHT22;52627;48.838;2.402;2023-07-02T08:08:16;24.22;54.52
65854;DHT22;52627;48.838;2.402;2023-07-02T08:10:44;24.44;54.17
65854;DHT22;52627;48.838;2.402;2023-07-02T08:13:12;24.49;53.67
65854;DHT22;52627;48.838;2.402;2023-07-02T08:15:40;24.54;53.51
65854;DHT22;52627;48.838;2.402;2023-07-02T08:18:07;24.84;53.05
65854;DHT22;52627;48.838;2.402;2023-07-02T08:20:36;25.24;52.40
65854;DHT22;52627;48.838;2.402;2023-07-02T08:23:03;25.27;51.74
65854;DHT22;52627;48.838;2.402;2023-07-02T08:25:30;25.29;51.12
65854;DHT22;52627;48.838;2.402;2023-07-02T08:27:58;25.42;50.81
65854;DHT22;52627;48.838;2.402;2023-07-02T08:30:25;25.29;50.51
65854;DHT22;52627;48.838;2.402;2023-07-02T08:32:55;25.17;50.32
65854;DHT22;52627;48.838;2.402;2023-07-02T08:35:23;24.98;49.88
65854;DHT22;52627;48.838;2.402;2023-07-02T08:37:50;24.81;49.65
65854;DHT22;52627;48.838;2.402;2023-07-02T08:40:18;24.74;49.25
65854;DHT22;52627;48.838;2.402;2023-07-02T08:42:46;24.79;49.29
65854;DHT22;52627;48.838;2.402;2023-07-02T08:45:14;24.75;49.17
65854;DHT22;52627;48.838;2.402;2023-07-02T08:47:44;24.65;48.92
65854;DHT22;52627;48.838;2.402;2023-07-02T08:50:13;24.44;48.76
65854;DHT22;52627;48.838;2.402;2023-07-02T08:52:41;24.28;48.82
65854;DHT22;52627;48.838;2.402;2023-07-02T08:55:10;24.26;48.76
65854;DHT22;52627;48.838;2.402;2023-07-02T08:57:37;24.46;48.73
65854;DHT22;52627;48.838;2.402;2023-07-02T09:00:07;24.60;48.55
65854;DHT22;52627;48.838;2.402;2023-07-02T09:02:36;24.61;48.37
65854;DHT22;52627;48.838;2.402;2023-07-02T09:05:04;24.46;48.35
65854;DHT22;52627;48.838;2.402;2023-07-02T09:07:42;24.32;48.12
65854;DHT22;52627;48.838;2.402;2023-07-02T09:10:11;24.59;47.92
65854;DHT22;52627;48.838;2.402;2023-07-02T09:12:38;24.76;47.67
65854;DHT22;52627;48.838;2.402;2023-07-02T09:15:08;25.38;47.63
65854;DHT22;52627;48.838;2.402;2023-07-02T09:17:36;26.15;47.00
65854;DHT22;52627;48.838;2.402;2023-07-02T09:20:05;26.48;46.64
65854;DHT22;52627;48.838;2.402;2023-07-02T09:22:35;26.44;46.08
65854;DHT22;52627;48.838;2.402;2023-07-02T09:25:04;26.25;45.63
65854;DHT22;52627;48.838;2.402;2023-07-02T09:27:41;26.05;45.47
65854;DHT22;52627;48.838;2.402;2023-07-02T09:30:13;25.90;45.19
65854;DHT22;52627;48.838;2.402;2023-07-02T09:32:45;25.76;44.78
65854;DHT22;52627;48.838;2.402;2023-07-02T09:35:13;25.64;44.59
65854;DHT22;52627;48.838;2.402;2023-07-02T09:37:42;25.54;44.41
65854;DHT22;52627;48.838;2.402;2023-07-02T09:40:10;25.62;44.12
65854;DHT22;52627;48.838;2.402;2023-07-02T09:42:38;25.51;44.06
65854;DHT22;52627;48.838;2.402;2023-07-02T09:45:08;25.40;44.06
65854;DHT22;52627;48.838;2.402;2023-07-02T09:47:38;25.26;43.78
65854;DHT22;52627;48.838;2.402;2023-07-02T09:50:11;25.05;43.57
65854;DHT22;52627;48.838;2.402;2023-07-02T09:52:40;25.29;43.43
65854;DHT22;52627;48.838;2.402;2023-07-02T09:55:08;25.77;42.99
65854;DHT22;52627;48.838;2.402;2023-07-02T09:57:35;26.15;42.78
65854;DHT22;52627;48.838;2.402;2023-07-02T10:00:04;26.51;42.60
65854;DHT22;52627;48.838;2.402;2023-07-02T10:02:34;26.69;42.37
65854;DHT22;52627;48.838;2.402;2023-07-02T10:05:03;26.64;41.73
65854;DHT22;52627;48.838;2.402;2023-07-02T10:07:32;26.49;41.29
65854;DHT22;52627;48.838;2.402;2023-07-02T10:10:00;26.33;41.01
65854;DHT22;52627;48.838;2.402;2023-07-02T10:12:28;26.14;40.88
65854;DHT22;52627;48.838;2.402;2023-07-02T10:14:57;25.94;40.49
65854;DHT22;52627;48.838;2.402;2023-07-02T10:17:32;26.21;40.53
65854;DHT22;52627;48.838;2.402;2023-07-02T10:20:10;26.71;40.37
65854;DHT22;52627;48.838;2.402;2023-07-02T10:22:49;27.24;39.97
65854;DHT22;52627;48.838;2.402;2023-07-02T10:25:24;27.74;39.43
65854;DHT22;52627;48.838;2.402;2023-07-02T10:27:52;28.02;39.29
65854;DHT22;52627;48.838;2.402;2023-07-02T10:30:30;27.95;38.98
65854;DHT22;52627;48.838;2.402;2023-07-02T10:33:07;27.82;38.77
65854;DHT22;52627;48.838;2.402;2023-07-02T10:35:43;27.75;37.97
65854;DHT22;52627;48.838;2.402;2023-07-02T10:38:19;27.47;37.62
65854;DHT22;52627;48.838;2.402;2023-07-02T10:40:57;27.13;37.47
65854;DHT22;52627;48.838;2.402;2023-07-02T10:43:26;26.80;37.56
65854;DHT22;52627;48.838;2.402;2023-07-02T10:45:57;26.86;37.40
65854;DHT22;52627;48.838;2.402;2023-07-02T10:48:27;27.09;37.42
65854;DHT22;52627;48.838;2.402;2023-07-02T10:50:55;27.38;37.23
65854;DHT22;52627;48.838;2.402;2023-07-02T10:53:23;27.51;36.89
65854;DHT22;52627;48.838;2.402;2023-07-02T10:55:54;27.43;36.75
65854;DHT22;52627;48.838;2.402;2023-07-02T10:58:23;27.55;36.58
65854;DHT22;52627;48.838;2.402;2023-07-02T11:00:51;27.74;36.56
65854;DHT22;52627;48.838;2.402;2023-07-02T11:03:20;27.76;36.53
65854;DHT22;52627;48.838;2.402;2023-07-02T11:05:49;27.92;36.02
65854;DHT22;52627;48.838;2.402;2023-07-02T11:08:17;28.16;36.04
65854;DHT22;52627;48.838;2.402;2023-07-02T11:10:45;28.45;35.87
65854;DHT22;52627;48.838;2.402;2023-07-02T11:15:40;28.88;35.53
65854;DHT22;52627;48.838;2.402;2023-07-02T11:18:12;29.05;35.14
65854;DHT22;52627;48.838;2.402;2023-07-02T11:20:41;28.96;34.89
65854;DHT22;52627;48.838;2.402;2023-07-02T11:23:22;28.73;34.79
65854;DHT22;52627;48.838;2.402;2023-07-02T11:25:56;28.55;34.59
65854;DHT22;52627;48.838;2.402;2023-07-02T11:28:24;28.40;34.53
65854;DHT22;52627;48.838;2.402;2023-07-02T11:30:52;28.26;34.43
65854;DHT22;52627;48.838;2.402;2023-07-02T11:33:31;28.09;34.48
65854;DHT22;52627;48.838;2.402;2023-07-02T11:36:06;28.05;34.59
65854;DHT22;52627;48.838;2.402;2023-07-02T11:38:36;27.96;34.61
65854;DHT22;52627;48.838;2.402;2023-07-02T11:41:03;27.67;34.57
65854;DHT22;52627;48.838;2.402;2023-07-02T11:43:32;27.39;34.77
65854;DHT22;52627;48.838;2.402;2023-07-02T11:45:59;27.20;34.82
65854;DHT22;52627;48.838;2.402;2023-07-02T11:48:26;27.11;34.81
65854;DHT22;52627;48.838;2.402;2023-07-02T11:50:54;27.12;34.90
65854;DHT22;52627;48.838;2.402;2023-07-02T11:53:21;27.11;34.85
65854;DHT22;52627;48.838;2.402;2023-07-02T11:55:49;27.11;34.82
65854;DHT22;52627;48.838;2.402;2023-07-02T11:58:16;27.42;35.00
65854;DHT22;52627;48.838;2.402;2023-07-02T12:00:44;27.78;34.89
65854;DHT22;52627;48.838;2.402;2023-07-02T12:03:11;28.06;34.72
65854;DHT22;52627;48.838;2.402;2023-07-02T12:05:39;28.30;34.43
65854;DHT22;52627;48.838;2.402;2023-07-02T12:08:07;28.53;34.29
65854;DHT22;52627;48.838;2.402;2023-07-02T12:10:35;28.60;33.82
65854;DHT22;52627;48.838;2.402;2023-07-02T12:13:05;28.67;33.33
65854;DHT22;52627;48.838;2.402;2023-07-02T12:15:32;28.80;33.29
65854;DHT22;52627;48.838;2.402;2023-07-02T12:17:59;28.96;32.86
65854;DHT22;52627;48.838;2.402;2023-07-02T12:20:27;29.12;32.75
65854;DHT22;52627;48.838;2.402;2023-07-02T12:22:54;29.29;32.36
65854;DHT22;52627;48.838;2.402;2023-07-02T12:25:22;29.42;32.23
65854;DHT22;52627;48.838;2.402;2023-07-02T12:27:50;29.48;31.49
65854;DHT22;52627;48.838;2.402;2023-07-02T12:30:17;29.47;31.23
65854;DHT22;52627;48.838;2.402;2023-07-02T12:32:45;29.46;30.84
65854;DHT22;52627;48.838;2.402;2023-07-02T12:35:13;29.41;30.77
65854;DHT22;52627;48.838;2.402;2023-07-02T12:37:46;29.47;30.73
65854;DHT22;52627;48.838;2.402;2023-07-02T12:40:18;29.30;30.45
65854;DHT22;52627;48.838;2.402;2023-07-02T12:42:47;29.30;30.24
65854;DHT22;52627;48.838;2.402;2023-07-02T12:45:15;29.40;30.11
65854;DHT22;52627;48.838;2.402;2023-07-02T12:47:45;29.55;30.31
65854;DHT22;52627;48.838;2.402;2023-07-02T12:50:12;29.79;30.29
65854;DHT22;52627;48.838;2.402;2023-07-02T12:52:40;29.73;30.22
65854;DHT22;52627;48.838;2.402;2023-07-02T12:55:07;29.66;29.99
65854;DHT22;52627;48.838;2.402;2023-07-02T12:57:35;29.67;29.77
65854;DHT22;52627;48.838;2.402;2023-07-02T13:00:02;29.76;29.73
65854;DHT22;52627;48.838;2.402;2023-07-02T13:02:33;29.75;29.64
65854;DHT22;52627;48.838;2.402;2023-07-02T13:05:07;29.59;29.49
65854;DHT22;52627;48.838;2.402;2023-07-02T13:07:35;29.52;29.36
65854;DHT22;52627;48.838;2.402;2023-07-02T13:10:03;29.27;29.18
65854;DHT22;52627;48.838;2.402;2023-07-02T13:12:31;29.01;29.40
65854;DHT22;52627;48.838;2.402;2023-07-02T13:14:58;28.75;29.43
65854;DHT22;52627;48.838;2.402;2023-07-02T13:17:25;28.83;29.47
65854;DHT22;52627;48.838;2.402;2023-07-02T13:19:53;28.90;29.47
65854;DHT22;52627;48.838;2.402;2023-07-02T13:22:23;28.86;29.53
65854;DHT22;52627;48.838;2.402;2023-07-02T13:24:50;29.03;29.45
65854;DHT22;52627;48.838;2.402;2023-07-02T13:27:17;29.29;29.35
65854;DHT22;52627;48.838;2.402;2023-07-02T13:29:46;29.55;29.38
65854;DHT22;52627;48.838;2.402;2023-07-02T13:32:13;29.79;29.18
65854;DHT22;52627;48.838;2.402;2023-07-02T13:34:40;29.94;28.95
65854;DHT22;52627;48.838;2.402;2023-07-02T13:37:08;30.11;28.92
65854;DHT22;52627;48.838;2.402;2023-07-02T13:39:35;30.42;28.96
65854;DHT22;52627;48.838;2.402;2023-07-02T13:42:03;30.74;28.87
65854;DHT22;52627;48.838;2.402;2023-07-02T13:44:31;30.92;28.56
65854;DHT22;52627;48.838;2.402;2023-07-02T13:46:58;30.80;28.36
65854;DHT22;52627;48.838;2.402;2023-07-02T13:49:26;30.86;28.23
65854;DHT22;52627;48.838;2.402;2023-07-02T13:51:53;31.03;27.92
65854;DHT22;52627;48.838;2.402;2023-07-02T13:54:21;31.10;27.72
65854;DHT22;52627;48.838;2.402;2023-07-02T13:56:48;31.19;27.76
65854;DHT22;52627;48.838;2.402;2023-07-02T13:59:17;31.15;27.43
65854;DHT22;52627;48.838;2.402;2023-07-02T14:01:45;30.83;27.44
65854;DHT22;52627;48.838;2.402;2023-07-02T14:04:14;30.54;27.41
65854;DHT22;52627;48.838;2.402;2023-07-02T14:06:42;30.23;27.46
65854;DHT22;52627;48.838;2.402;2023-07-02T14:09:10;29.92;27.57
65854;DHT22;52627;48.838;2.402;2023-07-02T14:11:39;29.69;27.76
65854;DHT22;52627;48.838;2.402;2023-07-02T14:14:07;29.48;27.81
65854;DHT22;52627;48.838;2.402;2023-07-02T14:16:34;29.30;27.90
65854;DHT22;52627;48.838;2.402;2023-07-02T14:19:02;29.06;27.90
65854;DHT22;52627;48.838;2.402;2023-07-02T14:21:29;28.72;28.08
65854;DHT22;52627;48.838;2.402;2023-07-02T14:23:57;28.50;28.27
65854;DHT22;52627;48.838;2.402;2023-07-02T14:26:25;28.42;28.53
65854;DHT22;52627;48.838;2.402;2023-07-02T14:28:53;28.40;28.76
65854;DHT22;52627;48.838;2.402;2023-07-02T14:31:20;28.34;28.89
65854;DHT22;52627;48.838;2.402;2023-07-02T14:33:48;28.31;29.07
65854;DHT22;52627;48.838;2.402;2023-07-02T14:36:16;28.21;29.16
65854;DHT22;52627;48.838;2.402;2023-07-02T14:38:43;28.06;29.38
65854;DHT22;52627;48.838;2.402;2023-07-02T14:41:11;27.89;29.51
65854;DHT22;52627;48.838;2.402;2023-07-02T14:43:38;27.78;29.72
65854;DHT22;52627;48.838;2.402;2023-07-02T14:46:05;27.77;29.90
65854;DHT22;52627;48.838;2.402;2023-07-02T14:48:33;27.83;30.07
65854;DHT22;52627;48.838;2.402;2023-07-02T14:51:00;27.89;30.16
65854;DHT22;52627;48.838;2.402;2023-07-02T14:53:30;27.85;30.10
65854;DHT22;52627;48.838;2.402;2023-07-02T14:55:59;27.72;30.21
65854;DHT22;52627;48.838;2.402;2023-07-02T14:58:27;27.62;30.34
65854;DHT22;52627;48.838;2.402;2023-07-02T15:00:56;27.59;30.36
65854;DHT22;52627;48.838;2.402;2023-07-02T15:03:24;27.57;30.36
65854;DHT22;52627;48.838;2.402;2023-07-02T15:05:53;27.56;30.43
65854;DHT22;52627;48.838;2.402;2023-07-02T15:08:20;27.52;30.42
65854;DHT22;52627;48.838;2.402;2023-07-02T15:10:49;27.48;30.43
65854;DHT22;52627;48.838;2.402;2023-07-02T15:13:18;27.43;30.48
65854;DHT22;52627;48.838;2.402;2023-07-02T15:15:49;27.35;30.54
65854;DHT22;52627;48.838;2.402;2023-07-02T15:18:17;27.26;30.58
65854;DHT22;52627;48.838;2.402;2023-07-02T15:20:45;27.29;30.73
65854;DHT22;52627;48.838;2.402;2023-07-02T15:23:13;27.29;30.77
65854;DHT22;52627;48.838;2.402;2023-07-02T15:25:40;27.25;30.77
65854;DHT22;52627;48.838;2.402;2023-07-02T15:28:07;27.13;30.80
65854;DHT22;52627;48.838;2.402;2023-07-02T15:30:38;26.99;30.84
65854;DHT22;52627;48.838;2.402;2023-07-02T15:33:06;26.96;30.98
65854;DHT22;52627;48.838;2.402;2023-07-02T15:35:33;27.03;31.16
65854;DHT22;52627;48.838;2.402;2023-07-02T15:38:01;27.08;31.18